Time;durP1;ratioP1;P1;durP2;ratioP2;P2;SDS_P1;SDS_P2;PMS_P1;PMS_P2;Temp;Humidity;BMP_temperature;BMP_pressure;BME280_temperature;BME280_humidity;BME280_pressure;Samples;Min_cycle;Max_cycle;Signal;HPM_P1;HPM_P2
2022/10/14 00:02:09;;;;;;;30.48;22.92;;;12.40;99.90;;;;;;4979398;28;20043;-51
2022/10/14 00:04:35;;;;;;;34.83;22.60;;;12.40;99.90;;;;;;4981673;28;20066;-54
2022/10/14 00:07:00;;;;;;;28.08;21.17;;;12.50;99.90;;;;;;4975871;28;20058;-53
2022/10/14 00:09:26;;;;;;;31.98;23.80;;;12.50;99.90;;;;;;4982988;28;20458;-54
2022/10/14 00:11:51;;;;;;;29.33;21.75;;;12.40;99.90;;;;;;4984558;28;20513;-51
2022/10/14 00:14:19;;;;;;;26.58;19.95;;;12.40;99.90;;;;;;4981926;28;20373;-54
2022/10/14 00:16:47;;;;;;;26.90;20.25;;;12.40;99.90;;;;;;4980642;28;20114;-52
2022/10/14 00:19:14;;;;;;;24.17;18.70;;;12.40;99.90;;;;;;4981538;28;20026;-54
2022/10/14 00:21:42;;;;;;;30.95;21.90;;;12.40;99.90;;;;;;4978150;28;20023;-51
2022/10/14 00:24:09;;;;;;;28.13;20.20;;;12.40;99.90;;;;;;4981797;28;20030;-51
2022/10/14 00:26:37;;;;;;;24.98;18.48;;;12.40;99.90;;;;;;4983527;28;20030;-54
2022/10/14 00:29:05;;;;;;;21.73;17.80;;;12.40;99.90;;;;;;4978823;28;20030;-52
2022/10/14 00:31:31;;;;;;;25.48;20.08;;;12.40;99.90;;;;;;4985088;28;20397;-51
2022/10/14 00:33:57;;;;;;;27.10;18.95;;;12.40;99.90;;;;;;4982502;28;20030;-55
2022/10/14 00:36:23;;;;;;;28.50;19.92;;;12.30;99.90;;;;;;4979263;28;20033;-51
2022/10/14 00:38:51;;;;;;;29.35;22.60;;;12.40;99.90;;;;;;4982412;28;20022;-56
2022/10/14 00:41:23;;;;;;;28.23;21.40;;;12.40;99.90;;;;;;4981209;28;20093;-54
2022/10/14 00:43:57;;;;;;;31.92;23.13;;;12.40;99.90;;;;;;4981764;28;20029;-51
2022/10/14 00:46:25;;;;;;;35.35;24.70;;;12.40;99.90;;;;;;4976433;28;20597;-52
2022/10/14 00:48:51;;;;;;;38.45;26.27;;;12.40;99.90;;;;;;4979849;28;20058;-51
2022/10/14 00:51:17;;;;;;;32.33;22.88;;;12.40;99.90;;;;;;4976291;28;20026;-53
2022/10/14 00:53:43;;;;;;;37.35;25.90;;;12.40;99.90;;;;;;4981408;28;20030;-52
2022/10/14 00:56:10;;;;;;;33.88;23.20;;;12.40;99.90;;;;;;4978772;28;20109;-53
2022/10/14 00:58:37;;;;;;;40.97;25.88;;;12.40;99.90;;;;;;4980450;28;20034;-55
2022/10/14 01:01:03;;;;;;;31.48;23.83;;;12.40;99.90;;;;;;4980716;28;20046;-52
2022/10/14 01:03:28;;;;;;;35.38;22.85;;;12.40;99.90;;;;;;4976053;28;20035;-56
2022/10/14 01:06:30;;;;;;;29.75;22.20;;;12.40;99.90;;;;;;4978838;28;20102;-56
2022/10/14 01:09:18;;;;;;;30.65;22.80;;;12.40;99.90;;;;;;4979449;28;20031;-55
2022/10/14 01:11:55;;;;;;;32.17;21.27;;;12.40;99.90;;;;;;4982081;28;20023;-52
2022/10/14 01:14:37;;;;;;;33.45;25.55;;;12.40;99.90;;;;;;4968878;28;20029;-54
2022/10/14 01:17:32;;;;;;;37.75;25.75;;;12.30;99.90;;;;;;4980363;28;20027;-51
2022/10/14 01:20:19;;;;;;;37.92;24.45;;;12.40;99.90;;;;;;4975921;28;20045;-51
2022/10/14 01:23:09;;;;;;;34.22;23.63;;;12.40;99.90;;;;;;4979084;28;20590;-54
2022/10/14 01:26:02;;;;;;;32.95;24.52;;;12.30;99.90;;;;;;4983141;28;20030;-54
2022/10/14 01:28:51;;;;;;;44.88;27.40;;;12.30;99.90;;;;;;4974316;28;20061;-54
2022/10/14 01:31:22;;;;;;;34.22;23.88;;;12.40;99.90;;;;;;4975790;28;20032;-55
2022/10/14 01:33:55;;;;;;;36.72;26.38;;;12.40;99.90;;;;;;4983483;28;20504;-53
2022/10/14 01:36:36;;;;;;;39.47;26.15;;;12.30;99.90;;;;;;4977690;28;20118;-53
2022/10/14 01:39:26;;;;;;;33.67;24.80;;;12.30;99.90;;;;;;4983236;28;20019;-53
2022/10/14 01:41:58;;;;;;;38.72;26.10;;;12.40;99.90;;;;;;4981772;28;20027;-51
2022/10/14 01:44:26;;;;;;;36.40;25.05;;;12.40;99.90;;;;;;4986082;28;20049;-52
2022/10/14 01:46:54;;;;;;;38.63;25.98;;;12.40;99.90;;;;;;4981085;28;20027;-52
2022/10/14 01:49:29;;;;;;;38.70;26.33;;;12.40;99.90;;;;;;4987971;28;20030;-54
2022/10/14 01:52:00;;;;;;;38.08;25.20;;;12.40;99.90;;;;;;4981822;28;20416;-52
2022/10/14 01:54:36;;;;;;;39.63;24.80;;;12.40;99.90;;;;;;4982523;28;20035;-52
2022/10/14 01:57:04;;;;;;;;;;;12.40;99.90;;;;;;4981112;28;20061;-54
2022/10/14 01:59:31;;;;;;;43.00;28.27;;;12.40;99.90;;;;;;4985472;28;19941;-51
2022/10/14 02:01:57;;;;;;;38.83;25.58;;;12.40;99.90;;;;;;4974519;28;20481;-52
2022/10/14 02:04:23;;;;;;;39.85;25.83;;;12.30;99.90;;;;;;4980200;28;20069;-51
2022/10/14 02:07:16;;;;;;;42.97;27.95;;;12.40;99.90;;;;;;4980514;28;20045;-52
2022/10/14 02:09:56;;;;;;;40.95;27.08;;;12.40;99.90;;;;;;4973848;28;20033;-55
2022/10/14 02:12:41;;;;;;;36.47;25.05;;;12.30;99.90;;;;;;4977253;28;20424;-52
2022/10/14 02:15:19;;;;;;;38.78;27.23;;;12.40;99.90;;;;;;4982795;28;20406;-51
2022/10/14 02:17:54;;;;;;;40.17;27.15;;;12.30;99.90;;;;;;4983560;28;20090;-52
2022/10/14 02:20:31;;;;;;;33.60;23.70;;;12.30;99.90;;;;;;4977213;28;20041;-54
2022/10/14 02:23:25;;;;;;;39.72;28.73;;;12.30;99.90;;;;;;4980824;28;20035;-53
2022/10/14 02:25:53;;;;;;;37.88;25.50;;;12.40;99.90;;;;;;4981857;28;20046;-52
2022/10/14 02:28:22;;;;;;;40.70;27.98;;;12.40;99.90;;;;;;4981898;28;20045;-55
2022/10/14 02:30:54;;;;;;;41.47;27.80;;;12.40;99.90;;;;;;4982491;28;20030;-55
2022/10/14 02:33:23;;;;;;;31.85;22.60;;;12.30;99.90;;;;;;4972917;28;20027;-51
2022/10/14 02:35:50;;;;;;;38.55;26.08;;;12.30;99.90;;;;;;4977211;28;20050;-53
2022/10/14 02:38:18;;;;;;;35.95;24.13;;;12.30;99.90;;;;;;4978125;28;20405;-51
2022/10/14 02:40:47;;;;;;;37.45;25.67;;;12.30;99.90;;;;;;4978801;28;20036;-52
2022/10/14 02:43:13;;;;;;;36.13;24.70;;;12.30;99.90;;;;;;4982877;28;20124;-55
2022/10/14 02:45:41;;;;;;;29.30;19.95;;;12.30;99.90;;;;;;4979949;28;20062;-53
2022/10/14 02:48:07;;;;;;;29.20;21.02;;;12.30;99.90;;;;;;4982801;28;20329;-51
2022/10/14 02:50:33;;;;;;;31.67;21.13;;;12.30;99.90;;;;;;4983001;28;20022;-52
2022/10/14 02:52:58;;;;;;;30.23;22.05;;;12.30;99.90;;;;;;4980853;28;20901;-52
2022/10/14 02:55:24;;;;;;;36.03;25.13;;;12.30;99.90;;;;;;4978309;28;20033;-51
2022/10/14 02:57:50;;;;;;;35.42;25.27;;;12.30;99.90;;;;;;4982821;28;20027;-53
2022/10/14 03:00:16;;;;;;;30.98;22.27;;;12.30;99.90;;;;;;4979984;28;20553;-55
2022/10/14 03:02:42;;;;;;;30.20;20.95;;;12.30;99.90;;;;;;4984471;28;20041;-51
2022/10/14 03:05:08;;;;;;;33.65;23.13;;;12.30;99.90;;;;;;4983459;28;20030;-54
2022/10/14 03:07:34;;;;;;;36.90;25.45;;;12.30;99.90;;;;;;4985272;28;20054;-54
2022/10/14 03:09:59;;;;;;;33.35;23.52;;;12.30;99.90;;;;;;4983364;28;20068;-51
2022/10/14 03:12:25;;;;;;;29.20;21.48;;;12.30;99.90;;;;;;4986138;28;20034;-51
2022/10/14 03:14:51;;;;;;;32.70;22.58;;;12.30;99.90;;;;;;4982414;28;20030;-53
2022/10/14 03:17:16;;;;;;;29.60;21.80;;;12.30;99.90;;;;;;4981800;28;20037;-51
2022/10/14 03:19:42;;;;;;;26.30;19.38;;;12.30;99.90;;;;;;4983634;28;20041;-54
2022/10/14 03:22:08;;;;;;;27.52;20.55;;;12.30;99.90;;;;;;4981736;28;20069;-52
2022/10/14 03:24:33;;;;;;;32.63;22.23;;;12.30;99.90;;;;;;4980481;28;20037;-51
2022/10/14 03:26:59;;;;;;;30.20;22.30;;;12.30;99.90;;;;;;4980954;28;20081;-51
2022/10/14 03:29:24;;;;;;;31.85;23.00;;;12.20;99.90;;;;;;4980952;28;20034;-55
2022/10/14 03:31:50;;;;;;;31.52;22.20;;;12.30;99.90;;;;;;4985300;28;20041;-53
2022/10/14 03:34:15;;;;;;;31.02;22.02;;;12.30;99.90;;;;;;4976298;28;20105;-51
2022/10/14 03:36:41;;;;;;;30.63;21.63;;;12.30;99.90;;;;;;4980845;28;20027;-51
2022/10/14 03:39:09;;;;;;;30.20;21.88;;;12.20;99.90;;;;;;4977968;28;20031;-54
2022/10/14 03:41:34;;;;;;;29.70;20.83;;;12.30;99.90;;;;;;4973025;28;20485;-56
2022/10/14 03:44:00;;;;;;;38.65;26.10;;;12.30;99.90;;;;;;4970101;28;20039;-53
2022/10/14 03:46:25;;;;;;;35.75;26.48;;;12.30;99.90;;;;;;4978307;28;20030;-51
2022/10/14 03:48:52;;;;;;;34.80;24.55;;;12.30;99.90;;;;;;4985018;28;20465;-55
2022/10/14 03:51:17;;;;;;;32.88;22.35;;;12.30;99.90;;;;;;4974056;28;20026;-57
2022/10/14 03:53:43;;;;;;;32.97;23.30;;;12.30;99.90;;;;;;4979037;28;20019;-55
2022/10/14 03:56:08;;;;;;;40.13;27.13;;;12.30;99.90;;;;;;4981303;28;20439;-51
2022/10/14 03:58:34;;;;;;;34.63;24.85;;;12.30;99.90;;;;;;4977504;28;20084;-52
2022/10/14 04:01:00;;;;;;;32.92;24.30;;;12.30;99.90;;;;;;4980130;28;20037;-51
2022/10/14 04:03:25;;;;;;;35.60;25.30;;;12.30;99.90;;;;;;4981824;28;20460;-55
2022/10/14 04:05:51;;;;;;;39.22;26.80;;;12.30;99.90;;;;;;4980773;28;20055;-54
2022/10/14 04:08:16;;;;;;;35.22;25.27;;;12.30;99.90;;;;;;4982318;28;20420;-51
2022/10/14 04:10:42;;;;;;;36.47;25.73;;;12.30;99.90;;;;;;4997667;28;20018;-51
2022/10/14 04:13:07;;;;;;;31.77;22.52;;;12.20;99.90;;;;;;4980947;28;20420;-54
2022/10/14 04:15:35;;;;;;;30.83;21.80;;;12.20;99.90;;;;;;4982446;28;20489;-51
2022/10/14 04:18:01;;;;;;;30.90;21.42;;;12.20;99.90;;;;;;4980077;28;20034;-51
2022/10/14 04:20:26;;;;;;;27.10;20.48;;;12.30;99.90;;;;;;4982240;28;20053;-52
2022/10/14 04:22:52;;;;;;;30.08;21.10;;;12.20;99.90;;;;;;4978591;28;20066;-55
2022/10/14 04:25:18;;;;;;;29.70;20.20;;;12.20;99.90;;;;;;4982113;28;20022;-52
2022/10/14 04:27:43;;;;;;;29.75;20.38;;;12.20;99.90;;;;;;4979970;28;20082;-51
2022/10/14 04:30:09;;;;;;;32.63;22.60;;;12.20;99.90;;;;;;4981364;28;20558;-52
2022/10/14 04:32:35;;;;;;;30.85;21.08;;;12.20;99.90;;;;;;4984147;28;20270;-51
2022/10/14 04:35:00;;;;;;;30.63;21.30;;;12.20;99.90;;;;;;4980017;28;20035;-58
2022/10/14 04:37:27;;;;;;;26.27;19.70;;;12.20;99.90;;;;;;4986934;28;20041;-54
2022/10/14 04:39:53;;;;;;;27.85;19.27;;;12.20;99.90;;;;;;4979523;28;20026;-53
2022/10/14 04:42:19;;;;;;;28.17;21.00;;;12.20;99.90;;;;;;4981633;28;20426;-53
2022/10/14 04:44:44;;;;;;;28.42;20.38;;;12.20;99.90;;;;;;4980976;28;20091;-56
2022/10/14 04:47:10;;;;;;;27.23;20.00;;;12.20;99.90;;;;;;4978267;28;20031;-51
2022/10/14 04:49:35;;;;;;;26.95;18.45;;;12.20;99.90;;;;;;4983706;28;20061;-51
2022/10/14 04:52:01;;;;;;;24.00;17.30;;;12.20;99.90;;;;;;4977683;28;20073;-54
2022/10/14 04:54:30;;;;;;;24.58;17.48;;;12.20;99.90;;;;;;4980344;28;20038;-51
2022/10/14 04:56:55;;;;;;;26.77;19.17;;;12.20;99.90;;;;;;4986088;28;20038;-53
2022/10/14 04:59:21;;;;;;;29.10;19.70;;;12.20;99.90;;;;;;4982533;28;20042;-55
2022/10/14 05:01:46;;;;;;;25.13;18.98;;;12.20;99.90;;;;;;4988331;28;20060;-51
2022/10/14 05:04:12;;;;;;;30.33;19.65;;;12.20;99.90;;;;;;4987070;28;20034;-54
2022/10/14 05:06:38;;;;;;;27.38;19.92;;;12.20;99.90;;;;;;4983334;28;20037;-52
2022/10/14 05:09:05;;;;;;;26.38;19.08;;;12.20;99.90;;;;;;4987196;28;20025;-53
2022/10/14 05:11:31;;;;;;;25.30;18.80;;;12.20;99.90;;;;;;4982967;28;20101;-51
2022/10/14 05:13:57;;;;;;;28.33;19.55;;;12.20;99.90;;;;;;4989701;28;20516;-55
2022/10/14 05:16:22;;;;;;;28.45;19.88;;;12.20;99.90;;;;;;4981955;28;20448;-51
2022/10/14 05:18:48;;;;;;;29.17;20.58;;;12.20;99.90;;;;;;4987233;28;20030;-56
2022/10/14 05:21:13;;;;;;;23.67;17.52;;;12.20;99.90;;;;;;4984923;28;20050;-52
2022/10/14 05:23:39;;;;;;;29.40;21.40;;;12.20;99.90;;;;;;4981205;28;20022;-51
2022/10/14 05:26:05;;;;;;;29.80;19.70;;;12.20;99.90;;;;;;4980597;28;20035;-51
2022/10/14 05:28:30;;;;;;;29.05;21.10;;;12.20;99.90;;;;;;4978652;28;20077;-56
2022/10/14 05:30:56;;;;;;;30.30;21.00;;;12.20;99.90;;;;;;4976607;28;20488;-55
2022/10/14 05:33:21;;;;;;;26.58;19.58;;;12.20;99.90;;;;;;4986402;28;20038;-51
2022/10/14 05:35:47;;;;;;;26.75;18.90;;;12.20;99.90;;;;;;4984311;28;20054;-52
2022/10/14 05:38:13;;;;;;;28.80;20.10;;;12.20;99.90;;;;;;4984184;28;20030;-52
2022/10/14 05:40:42;;;;;;;28.13;19.65;;;12.20;99.90;;;;;;4984442;28;20026;-53
2022/10/14 05:43:08;;;;;;;29.33;20.63;;;12.20;99.90;;;;;;4986646;28;20070;-52
2022/10/14 05:45:33;;;;;;;29.02;19.52;;;12.20;99.90;;;;;;4977199;28;20509;-55
2022/10/14 05:47:59;;;;;;;31.38;20.02;;;12.20;99.90;;;;;;4974748;28;20032;-55
2022/10/14 05:50:24;;;;;;;26.02;18.95;;;12.20;99.90;;;;;;4981509;28;20030;-54
2022/10/14 05:52:50;;;;;;;28.42;19.67;;;12.20;99.90;;;;;;4983077;28;20097;-53
2022/10/14 05:55:15;;;;;;;32.35;22.17;;;12.20;99.90;;;;;;4986536;28;20026;-52
2022/10/14 05:57:43;;;;;;;34.47;24.17;;;12.20;99.90;;;;;;4984080;28;20034;-56
2022/10/14 06:00:09;;;;;;;30.60;21.45;;;12.20;99.90;;;;;;4975504;28;20497;-50
2022/10/14 06:02:35;;;;;;;38.28;26.17;;;12.20;99.90;;;;;;4986129;28;20519;-56
2022/10/14 06:05:00;;;;;;;34.08;22.98;;;12.20;99.90;;;;;;4988349;28;20026;-53
2022/10/14 06:07:26;;;;;;;31.00;21.52;;;12.20;99.90;;;;;;4987857;28;20076;-51
2022/10/14 06:09:51;;;;;;;40.30;24.67;;;12.30;99.90;;;;;;4983100;28;20058;-53
2022/10/14 06:12:17;;;;;;;40.95;25.42;;;12.30;99.90;;;;;;4988464;28;20019;-51
2022/10/14 06:14:42;;;;;;;39.85;24.33;;;12.30;99.90;;;;;;4978427;28;20637;-52
2022/10/14 06:17:08;;;;;;;39.85;23.83;;;12.30;99.90;;;;;;4977124;28;20395;-51
2022/10/14 06:19:33;;;;;;;34.55;22.80;;;12.30;99.90;;;;;;4986127;28;20030;-54
2022/10/14 06:21:59;;;;;;;30.13;21.33;;;12.30;99.90;;;;;;4981676;28;20044;-52
2022/10/14 06:24:24;;;;;;;38.92;24.63;;;12.30;99.90;;;;;;4985422;28;20030;-53
2022/10/14 06:26:50;;;;;;;38.55;26.52;;;12.30;99.90;;;;;;4987991;28;20097;-52
2022/10/14 06:29:16;;;;;;;38.67;25.77;;;12.30;99.90;;;;;;4982824;28;20030;-53
2022/10/14 06:31:42;;;;;;;40.85;24.50;;;12.30;99.90;;;;;;4976549;28;20528;-52
2022/10/14 06:34:07;;;;;;;37.42;24.67;;;12.30;99.90;;;;;;4980977;28;20034;-51
2022/10/14 06:36:33;;;;;;;40.97;25.45;;;12.30;99.90;;;;;;4979223;28;20069;-54
2022/10/14 06:38:59;;;;;;;40.05;24.25;;;12.30;99.90;;;;;;4982294;28;20084;-55
2022/10/14 06:41:24;;;;;;;38.10;24.15;;;12.30;99.90;;;;;;4978464;28;20019;-55
2022/10/14 06:43:50;;;;;;;37.67;25.25;;;12.30;99.90;;;;;;4985611;28;20197;-53
2022/10/14 06:46:15;;;;;;;41.67;25.83;;;12.30;99.90;;;;;;4973912;28;20066;-51
2022/10/14 06:48:41;;;;;;;40.40;24.60;;;12.30;99.90;;;;;;4985582;28;20073;-51
2022/10/14 06:51:07;;;;;;;38.60;25.25;;;12.30;99.90;;;;;;4979534;28;20497;-53
2022/10/14 06:53:33;;;;;;;50.10;29.00;;;12.30;99.90;;;;;;4974193;28;20429;-52
2022/10/14 06:56:01;;;;;;;54.42;28.83;;;12.30;99.90;;;;;;4982020;28;20034;-52
2022/10/14 06:58:27;;;;;;;45.33;27.48;;;12.40;99.90;;;;;;4981539;28;20023;-55
2022/10/14 07:00:53;;;;;;;41.65;26.27;;;12.40;99.90;;;;;;4982076;28;20026;-52
2022/10/14 07:03:19;;;;;;;59.55;30.77;;;12.40;99.90;;;;;;4981368;28;20018;-54
2022/10/14 07:05:44;;;;;;;44.78;26.27;;;12.40;99.90;;;;;;4985551;28;20246;-56
2022/10/14 07:08:10;;;;;;;45.70;26.48;;;12.30;99.90;;;;;;4973903;28;20397;-51
2022/10/14 07:10:36;;;;;;;45.53;27.80;;;12.40;99.90;;;;;;4983207;28;20022;-53
2022/10/14 07:13:01;;;;;;;49.05;28.52;;;12.40;99.90;;;;;;4982292;28;20062;-55
2022/10/14 07:15:27;;;;;;;50.75;28.85;;;12.40;99.90;;;;;;4983384;28;20113;-54
2022/10/14 07:20:19;;;;;;;53.53;31.20;;;12.40;99.90;;;;;;5005615;23;20484;-49
2022/10/14 07:22:45;;;;;;;55.95;34.95;;;12.40;99.90;;;;;;4986821;28;20026;-52
2022/10/14 07:25:11;;;;;;;77.22;43.28;;;12.40;99.90;;;;;;4990512;28;20041;-47
2022/10/14 07:27:36;;;;;;;65.38;37.78;;;12.40;99.90;;;;;;4987002;28;20477;-48
2022/10/14 07:30:04;;;;;;;64.82;35.38;;;12.50;99.90;;;;;;4981793;28;20045;-49
2022/10/14 07:32:30;;;;;;;65.22;38.75;;;12.40;99.90;;;;;;4983018;28;20081;-51
2022/10/14 07:34:55;;;;;;;58.13;33.33;;;12.50;99.90;;;;;;4979929;28;20031;-49
2022/10/14 07:37:21;;;;;;;57.72;31.63;;;12.50;99.90;;;;;;4985209;28;20417;-50
2022/10/14 07:39:47;;;;;;;54.58;32.15;;;12.50;99.90;;;;;;4974279;28;20430;-49
2022/10/14 07:42:12;;;;;;;54.35;30.10;;;12.50;99.90;;;;;;4981692;28;20022;-50
2022/10/14 07:44:38;;;;;;;52.40;32.28;;;12.60;99.90;;;;;;4977447;28;20093;-51
2022/10/14 07:47:05;;;;;;;58.00;33.03;;;12.60;99.90;;;;;;4975226;28;20069;-50
2022/10/14 07:49:31;;;;;;;52.97;31.60;;;12.60;99.90;;;;;;4982863;28;20035;-51
2022/10/14 07:51:56;;;;;;;50.75;32.05;;;12.60;99.90;;;;;;4978549;28;20327;-52
2022/10/14 07:54:24;;;;;;;58.92;34.17;;;12.70;99.90;;;;;;4982411;28;20027;-51
2022/10/14 07:56:50;;;;;;;61.40;34.50;;;12.70;99.90;;;;;;4978472;28;20050;-48
2022/10/14 07:59:18;;;;;;;62.08;34.90;;;12.70;99.90;;;;;;4981698;28;20030;-52
2022/10/14 08:01:48;;;;;;;55.47;32.58;;;12.70;99.90;;;;;;4980911;28;20412;-50
2022/10/14 08:04:15;;;;;;;56.30;32.97;;;12.70;99.90;;;;;;4974692;28;20011;-49
2022/10/14 08:06:41;;;;;;;60.03;36.20;;;12.70;99.90;;;;;;4983169;28;20031;-50
2022/10/14 08:09:08;;;;;;;59.65;32.15;;;12.70;99.90;;;;;;4980095;28;20401;-51
2022/10/14 08:11:34;;;;;;;66.95;35.47;;;12.70;99.90;;;;;;4979674;28;20026;-48
2022/10/14 08:14:00;;;;;;;62.20;32.65;;;12.70;99.90;;;;;;4979877;28;20042;-50
2022/10/14 08:16:28;;;;;;;60.90;34.83;;;12.70;99.90;;;;;;4980432;28;20031;-47
2022/10/14 08:19:00;;;;;;;56.30;33.13;;;12.70;99.90;;;;;;4979130;28;20045;-49
2022/10/14 08:21:25;;;;;;;59.70;34.50;;;12.70;99.90;;;;;;4978637;28;20053;-47
2022/10/14 08:23:52;;;;;;;58.30;32.95;;;12.70;99.90;;;;;;4980673;28;20481;-49
2022/10/14 08:26:25;;;;;;;64.22;36.50;;;12.70;99.90;;;;;;4978170;28;20129;-51
2022/10/14 08:28:51;;;;;;;60.97;34.40;;;12.70;99.90;;;;;;4976100;28;20030;-46
2022/10/14 08:31:17;;;;;;;54.03;34.80;;;12.70;99.90;;;;;;4985222;28;20019;-48
2022/10/14 08:33:43;;;;;;;58.30;34.95;;;12.70;99.90;;;;;;4981066;28;20027;-47
2022/10/14 08:36:09;;;;;;;56.70;33.65;;;12.70;99.90;;;;;;4985091;28;20027;-48
2022/10/14 08:38:35;;;;;;;52.55;31.60;;;12.70;99.90;;;;;;4984965;28;20038;-47
2022/10/14 08:41:15;;;;;;;51.00;32.78;;;12.70;99.90;;;;;;4982268;28;20030;-48
2022/10/14 08:44:14;;;;;;;57.30;36.60;;;12.70;99.90;;;;;;4985369;28;20488;-48
2022/10/14 08:46:53;;;;;;;49.22;31.15;;;12.70;99.90;;;;;;4978421;28;20426;-50
2022/10/14 08:49:37;;;;;;;50.28;32.28;;;12.70;99.90;;;;;;4985392;28;20209;-47
2022/10/14 08:52:09;;;;;;;58.60;34.28;;;12.70;99.90;;;;;;4974041;28;20126;-48
2022/10/14 08:54:42;;;;;;;57.20;35.47;;;12.80;99.90;;;;;;4986049;28;20022;-49
2022/10/14 08:57:17;;;;;;;53.80;34.08;;;12.80;99.90;;;;;;4977329;28;20038;-51
2022/10/14 08:59:44;;;;;;;51.03;33.70;;;12.90;99.90;;;;;;4988010;28;20048;-48
2022/10/14 09:02:26;;;;;;;52.40;30.67;;;12.90;99.90;;;;;;4982080;28;20366;-51
2022/10/14 09:04:52;;;;;;;50.85;32.35;;;13.00;99.90;;;;;;4982674;28;20122;-51
2022/10/14 09:07:19;;;;;;;52.67;31.90;;;13.10;99.90;;;;;;4981516;28;20105;-48
2022/10/14 09:09:50;;;;;;;48.33;31.48;;;13.10;99.90;;;;;;4974808;28;20034;-52
2022/10/14 09:12:30;;;;;;;43.65;31.45;;;13.10;99.90;;;;;;4977397;28;20057;-52
2022/10/14 09:15:21;;;;;;;54.08;32.92;;;13.20;99.90;;;;;;4980126;28;20122;-49
2022/10/14 09:18:10;;;;;;;55.33;34.78;;;13.20;99.90;;;;;;4971850;28;20035;-50
2022/10/14 09:20:35;;;;;;;50.70;32.08;;;13.30;99.90;;;;;;4974698;28;20034;-50
2022/10/14 09:23:11;;;;;;;50.83;33.20;;;13.40;99.90;;;;;;4982219;28;20378;-52
2022/10/14 09:25:38;;;;;;;58.95;35.08;;;13.60;99.90;;;;;;4981898;28;20238;-49
2022/10/14 09:28:04;;;;;;;49.00;31.10;;;13.70;99.90;;;;;;4978207;28;20595;-49
2022/10/14 09:30:36;;;;;;;48.33;31.67;;;13.70;99.90;;;;;;4979871;28;20030;-46
2022/10/14 09:33:03;;;;;;;47.90;30.05;;;13.80;99.90;;;;;;4982637;28;20425;-52
2022/10/14 09:35:31;;;;;;;44.28;29.25;;;13.80;99.90;;;;;;4983943;28;20022;-47
2022/10/14 09:37:58;;;;;;;45.72;29.30;;;13.90;99.90;;;;;;4983454;28;20576;-48
2022/10/14 09:40:28;;;;;;;40.33;27.95;;;13.90;99.90;;;;;;4982792;28;20485;-48
2022/10/14 09:43:13;;;;;;;36.47;27.13;;;13.90;99.90;;;;;;4981204;28;20073;-49
2022/10/14 09:45:58;;;;;;;38.72;27.35;;;14.00;99.90;;;;;;4998901;28;20026;-50
2022/10/14 09:48:45;;;;;;;41.20;28.70;;;14.00;99.90;;;;;;4966155;28;20023;-51
2022/10/14 09:51:32;;;;;;;38.53;26.60;;;14.00;99.90;;;;;;4983223;28;20022;-56
2022/10/14 09:54:03;;;;;;;39.15;28.05;;;14.00;99.90;;;;;;4981152;28;20062;-50
2022/10/14 09:56:36;;;;;;;40.65;25.65;;;14.00;99.90;;;;;;4983544;28;20022;-53
2022/10/14 09:59:04;;;;;;;39.70;25.67;;;14.10;99.90;;;;;;4973872;28;20034;-53
2022/10/14 10:01:40;;;;;;;33.90;23.27;;;14.20;99.90;;;;;;4980803;28;20036;-48
2022/10/14 10:04:29;;;;;;;32.78;22.35;;;14.30;99.90;;;;;;4983053;28;20034;-51
2022/10/14 10:06:56;;;;;;;33.65;23.27;;;14.30;99.90;;;;;;4980635;28;20042;-51
2022/10/14 10:09:21;;;;;;;37.67;22.73;;;14.30;99.90;;;;;;4981408;28;20073;-48
2022/10/14 10:11:47;;;;;;;34.17;24.00;;;14.30;99.90;;;;;;4980074;28;20027;-53
2022/10/14 10:14:23;;;;;;;35.80;23.15;;;14.40;99.90;;;;;;4982449;28;20024;-50
2022/10/14 10:16:50;;;;;;;32.53;22.08;;;14.40;99.90;;;;;;4978175;28;20077;-49
2022/10/14 10:19:33;;;;;;;29.58;21.25;;;14.40;99.90;;;;;;4977771;28;20041;-51
2022/10/14 10:22:21;;;;;;;33.97;21.90;;;14.40;99.90;;;;;;4974098;28;20074;-49
2022/10/14 10:24:51;;;;;;;36.22;24.15;;;14.40;99.90;;;;;;4977351;28;20516;-52
2022/10/14 10:27:35;;;;;;;32.75;24.02;;;14.40;99.90;;;;;;4978186;28;20425;-51
2022/10/14 10:30:16;;;;;;;32.10;22.67;;;14.30;99.90;;;;;;4981333;28;20109;-54
2022/10/14 10:33:07;;;;;;;32.10;22.83;;;14.40;99.90;;;;;;4983056;28;20442;-53
2022/10/14 10:35:46;;;;;;;30.80;22.60;;;14.40;99.90;;;;;;4979471;28;20026;-53
2022/10/14 10:38:19;;;;;;;27.30;19.55;;;14.40;99.90;;;;;;4982882;28;20061;-51
2022/10/14 10:40:53;;;;;;;28.60;19.20;;;14.50;99.90;;;;;;4982914;28;20081;-47
2022/10/14 10:43:30;;;;;;;29.33;20.30;;;14.40;99.90;;;;;;4974098;28;20046;-54
2022/10/14 10:46:40;;;;;;;26.15;19.27;;;14.50;99.90;;;;;;4981665;28;20030;-55
2022/10/14 10:49:17;;;;;;;29.15;19.92;;;14.40;99.90;;;;;;4986059;28;20030;-52
2022/10/14 10:52:07;;;;;;;26.63;19.20;;;14.40;99.90;;;;;;4979010;28;20023;-49
2022/10/14 10:55:11;;;;;;;28.33;19.77;;;14.40;99.90;;;;;;4973637;28;20019;-49
2022/10/14 10:57:49;;;;;;;27.27;19.52;;;14.40;99.90;;;;;;4905223;29;20104;-52
2022/10/14 11:00:21;;;;;;;27.90;20.15;;;14.40;99.90;;;;;;4906799;29;20021;-52
2022/10/14 11:02:53;;;;;;;25.83;18.17;;;14.40;99.90;;;;;;4947109;28;20034;-52
2022/10/14 11:05:54;;;;;;;29.98;20.20;;;14.30;99.90;;;;;;4977760;28;20408;-49
2022/10/14 11:14:18;;;;;;;24.63;17.90;;;14.30;99.90;;;;;;4978371;28;20101;-53
2022/10/14 11:17:08;;;;;;;25.15;17.40;;;14.30;99.90;;;;;;4979697;28;20022;-49
2022/10/14 11:19:58;;;;;;;27.52;18.95;;;14.40;99.90;;;;;;4991576;28;20053;-51
2022/10/14 11:22:42;;;;;;;27.00;19.30;;;14.40;99.90;;;;;;4975056;28;20062;-48
2022/10/14 11:25:39;;;;;;;27.13;18.75;;;14.40;99.90;;;;;;4972275;28;20046;-52
2022/10/14 11:28:10;;;;;;;;;;;14.40;99.90;;;;;;4979547;28;20385;-53
2022/10/14 11:30:46;;;;;;;23.50;18.40;;;14.40;99.90;;;;;;4982501;28;20396;-52
2022/10/14 11:33:17;;;;;;;27.02;18.92;;;14.40;99.90;;;;;;4980646;28;20030;-52
2022/10/14 11:36:08;;;;;;;23.85;17.60;;;14.40;99.90;;;;;;4975756;28;20053;-53
2022/10/14 11:38:36;;;;;;;23.08;17.45;;;14.30;99.90;;;;;;4973945;28;20026;-54
2022/10/14 11:41:33;;;;;;;25.10;17.25;;;14.20;99.90;;;;;;4980526;28;20030;-52
2022/10/14 11:44:07;;;;;;;23.92;17.40;;;14.20;99.90;;;;;;4981664;28;20030;-47
2022/10/14 11:46:36;;;;;;;24.23;18.02;;;14.10;99.90;;;;;;4978490;28;20018;-49
2022/10/14 11:49:19;;;;;;;24.88;17.05;;;14.00;99.90;;;;;;4981547;28;20120;-51
2022/10/14 11:51:51;;;;;;;26.08;17.30;;;14.00;99.90;;;;;;4971011;28;20398;-50
2022/10/14 11:54:52;;;;;;;22.58;16.92;;;13.90;99.90;;;;;;4966537;28;20026;-51
2022/10/14 11:57:33;;;;;;;20.33;16.88;;;13.90;99.90;;;;;;4960228;28;20062;-56
2022/10/14 12:00:22;;;;;;;22.65;16.60;;;14.00;99.90;;;;;;4979738;28;20441;-50
2022/10/14 12:02:57;;;;;;;21.73;16.52;;;14.00;99.90;;;;;;4981540;28;20054;-53
2022/10/14 12:05:39;;;;;;;21.35;16.05;;;14.10;99.90;;;;;;4974657;28;20035;-48
2022/10/14 12:08:26;;;;;;;23.23;17.48;;;14.10;99.90;;;;;;4978121;28;20113;-49
2022/10/14 12:11:10;;;;;;;24.63;17.52;;;14.20;99.90;;;;;;4986306;28;20019;-48
2022/10/14 12:13:45;;;;;;;21.80;17.30;;;14.30;99.90;;;;;;4972392;28;20029;-48
2022/10/14 12:16:17;;;;;;;22.15;17.25;;;14.30;99.90;;;;;;4973919;28;20145;-48
2022/10/14 12:18:47;;;;;;;26.45;17.80;;;14.30;99.90;;;;;;4977250;28;20182;-49
2022/10/14 12:21:34;;;;;;;19.77;15.30;;;14.30;99.90;;;;;;4981621;28;20043;-48
2022/10/14 12:24:10;;;;;;;20.63;15.65;;;14.40;99.90;;;;;;4980175;28;20053;-48
2022/10/14 12:26:48;;;;;;;21.13;15.82;;;14.40;99.90;;;;;;4982331;28;20026;-48
2022/10/14 12:29:18;;;;;;;20.67;16.00;;;14.40;99.90;;;;;;4974873;28;20023;-49
2022/10/14 12:32:02;;;;;;;25.17;17.33;;;14.50;99.90;;;;;;4973591;28;20031;-47
2022/10/14 12:34:33;;;;;;;25.38;17.58;;;14.50;99.90;;;;;;4974733;28;20477;-47
2022/10/14 12:36:59;;;;;;;21.20;16.88;;;14.50;99.90;;;;;;4980345;28;20075;-50
2022/10/14 12:39:31;;;;;;;19.77;14.90;;;14.40;99.90;;;;;;4979822;28;20094;-48
2022/10/14 12:42:03;;;;;;;18.48;14.82;;;14.40;99.90;;;;;;4978776;28;20061;-48
2022/10/14 12:44:54;;;;;;;20.05;15.27;;;14.40;99.90;;;;;;4973391;28;20037;-53
2022/10/14 12:47:34;;;;;;;23.05;16.50;;;14.50;99.90;;;;;;4967306;28;20022;-48
2022/10/14 12:50:03;;;;;;;20.35;15.05;;;14.40;99.90;;;;;;4973536;28;20023;-49
2022/10/14 12:52:35;;;;;;;20.05;14.90;;;14.50;99.90;;;;;;4971651;28;20030;-48
2022/10/14 12:55:08;;;;;;;20.77;14.60;;;14.50;99.90;;;;;;4976539;28;20657;-47
2022/10/14 12:57:36;;;;;;;19.00;13.30;;;14.50;99.90;;;;;;4978722;28;20037;-50